createdAt,value
2022-12-15T00:00:47.561Z,25.48
2022-12-15T00:03:10.279Z,25.55
2022-12-15T00:05:32.539Z,23.27
2022-12-15T00:07:54.401Z,27.73
2022-12-15T00:10:23.157Z,28.45
2022-12-15T00:12:47.455Z,28.60
2022-12-15T00:15:13.817Z,25.08
2022-12-15T00:17:53.173Z,28.30
2022-12-15T00:20:22.822Z,29.65
2022-12-15T00:22:44.112Z,31.42
2022-12-15T00:25:06.385Z,29.30
2022-12-15T00:27:34.831Z,29.23
2022-12-15T00:29:55.450Z,28.50
2022-12-15T00:32:17.159Z,27.55
2022-12-15T00:34:50.673Z,27.75
2022-12-15T00:37:12.259Z,24.20
2022-12-15T00:39:18.247Z,25.13
2022-12-15T00:41:29.326Z,26.60
2022-12-15T00:43:36.386Z,24.42
2022-12-15T00:45:57.347Z,26.08
2022-12-15T00:48:06.419Z,24.17
2022-12-15T00:50:27.820Z,28.25
2022-12-15T00:52:51.354Z,27.33
2022-12-15T00:55:15.163Z,26.27
2022-12-15T00:57:47.838Z,27.48
2022-12-15T01:00:16.951Z,28.02
2022-12-15T01:02:38.519Z,29.15
2022-12-15T01:05:03.263Z,25.80
2022-12-15T01:07:24.618Z,27.13
2022-12-15T01:09:45.200Z,31.42
2022-12-15T01:12:38.699Z,27.65
2022-12-15T01:15:15.138Z,29.75
2022-12-15T01:17:46.645Z,27.10
2022-12-15T01:20:10.071Z,32.33
2022-12-15T01:22:12.945Z,33.30
2022-12-15T01:24:15.817Z,26.77
2022-12-15T01:26:18.693Z,28.17
2022-12-15T01:28:42.460Z,25.70
2022-12-15T01:30:50.897Z,29.60
2022-12-15T01:32:59.590Z,27.70
2022-12-15T01:35:01.500Z,26.27
2022-12-15T01:37:03.409Z,25.05
2022-12-15T01:39:07.402Z,25.50
2022-12-15T01:41:12.965Z,23.98
2022-12-15T01:43:24.717Z,25.05
2022-12-15T01:47:50.165Z,25.15
2022-12-15T01:50:03.063Z,24.60
2022-12-15T01:52:31.665Z,28.42
2022-12-15T01:54:50.270Z,24.50
2022-12-15T01:57:03.267Z,26.52
2022-12-15T01:59:20.659Z,27.38
2022-12-15T02:01:38.615Z,26.20
2022-12-15T02:03:44.327Z,29.08
2022-12-15T02:05:56.366Z,25.05
2022-12-15T02:08:05.244Z,25.63
2022-12-15T02:10:11.383Z,24.13
2022-12-15T02:12:39.773Z,24.15
2022-12-15T02:14:58.643Z,24.48
2022-12-15T02:17:30.872Z,26.98
2022-12-15T02:20:11.183Z,22.77
2022-12-15T02:22:54.774Z,24.40
2022-12-15T02:25:20.593Z,22.30
2022-12-15T02:27:53.618Z,23.17
2022-12-15T02:30:17.257Z,23.15
2022-12-15T02:32:47.924Z,23.60
2022-12-15T02:35:01.622Z,21.95
2022-12-15T02:37:14.856Z,24.52
2022-12-15T02:39:18.919Z,24.60
2022-12-15T02:41:46.412Z,25.17
2022-12-15T02:43:48.479Z,24.50
2022-12-15T02:46:19.707Z,22.92
2022-12-15T02:48:29.336Z,24.85
2022-12-15T02:51:00.794Z,25.92
2022-12-15T02:53:31.755Z,22.83
2022-12-15T02:55:50.233Z,26.17
2022-12-15T02:58:05.429Z,21.73
2022-12-15T03:00:11.415Z,23.88
2022-12-15T03:02:25.257Z,23.75
2022-12-15T03:04:28.090Z,21.13
2022-12-15T03:06:40.117Z,22.50
2022-12-15T03:08:51.327Z,23.83
2022-12-15T03:10:54.831Z,25.13
2022-12-15T03:13:03.631Z,23.17
2022-12-15T03:15:08.333Z,25.63
2022-12-15T03:17:15.233Z,23.10
2022-12-15T03:19:39.935Z,21.80
2022-12-15T03:21:43.893Z,22.50
2022-12-15T03:23:54.843Z,21.13
2022-12-15T03:25:59.832Z,21.23
2022-12-15T03:28:13.600Z,20.90
2022-12-15T03:30:17.691Z,21.08
2022-12-15T03:32:24.733Z,24.08
2022-12-15T03:34:35.610Z,21.33
2022-12-15T03:36:44.164Z,20.43
2022-12-15T03:38:51.876Z,22.52
2022-12-15T03:40:53.819Z,20.83
2022-12-15T03:42:58.902Z,20.45
2022-12-15T03:45:31.424Z,20.00
2022-12-15T03:47:45.425Z,20.02
2022-12-15T03:49:47.297Z,21.23
2022-12-15T03:51:55.293Z,21.63
2022-12-15T03:53:59.229Z,22.25
2022-12-15T03:56:07.664Z,24.38
2022-12-15T03:58:12.674Z,23.38
2022-12-15T04:00:25.917Z,26.00
2022-12-15T04:02:34.389Z,23.48
2022-12-15T04:04:44.379Z,23.55
2022-12-15T04:06:51.382Z,22.23
2022-12-15T04:09:09.682Z,22.27
2022-12-15T04:11:11.628Z,25.38
2022-12-15T04:13:14.545Z,26.75
2022-12-15T04:15:29.598Z,28.27
2022-12-15T04:17:38.035Z,31.98
2022-12-15T04:20:09.348Z,28.40
2022-12-15T04:22:18.121Z,27.90
2022-12-15T04:24:40.659Z,32.28
2022-12-15T04:27:04.144Z,28.50
2022-12-15T04:29:26.663Z,26.80
2022-12-15T04:31:52.058Z,25.38
2022-12-15T04:34:19.208Z,26.52
2022-12-15T04:36:40.757Z,28.30
2022-12-15T04:39:01.379Z,33.33
2022-12-15T04:41:24.078Z,30.83
2022-12-15T04:44:15.904Z,28.08
2022-12-15T04:46:36.449Z,30.00
2022-12-15T04:48:58.158Z,29.77
2022-12-15T04:51:25.110Z,26.60
2022-12-15T04:53:45.509Z,31.33
2022-12-15T04:56:18.893Z,28.27
2022-12-15T04:58:44.546Z,33.67
2022-12-15T05:01:30.555Z,31.52
2022-12-15T05:04:00.725Z,31.83
2022-12-15T05:06:23.523Z,34.17
2022-12-15T05:08:51.108Z,28.48
2022-12-15T05:11:17.876Z,32.72
2022-12-15T05:13:53.462Z,34.78
2022-12-15T05:16:13.750Z,36.05
2022-12-15T05:18:42.148Z,34.13
2022-12-15T05:21:02.283Z,31.35
2022-12-15T05:23:30.016Z,30.83
2022-12-15T05:25:57.755Z,32.30
2022-12-15T05:28:30.197Z,31.55
2022-12-15T05:31:12.454Z,31.30
2022-12-15T05:35:43.991Z,31.15
2022-12-15T05:38:10.639Z,31.10
2022-12-15T05:40:45.984Z,28.27
2022-12-15T05:43:01.905Z,30.13
2022-12-15T05:45:18.138Z,27.15
2022-12-15T05:47:32.020Z,32.47
2022-12-15T05:49:35.963Z,30.90
2022-12-15T05:51:59.801Z,27.60
2022-12-15T05:54:19.969Z,32.03
2022-12-15T05:56:38.193Z,30.67
2022-12-15T05:58:58.870Z,29.08
2022-12-15T06:01:07.860Z,29.90
2022-12-15T06:03:43.974Z,31.10
2022-12-15T06:05:56.446Z,32.40
2022-12-15T06:08:15.157Z,31.15
2022-12-15T06:10:23.943Z,29.85
2022-12-15T06:12:50.455Z,31.50
2022-12-15T06:15:39.914Z,31.15
2022-12-15T06:17:49.510Z,29.92
2022-12-15T06:19:55.830Z,32.35
2022-12-15T06:25:19.675Z,31.65
2022-12-15T06:27:37.982Z,29.58
2022-12-15T06:29:40.970Z,28.88
2022-12-15T06:32:12.000Z,32.72
2022-12-15T06:34:18.910Z,29.98
2022-12-15T06:36:25.061Z,30.05
2022-12-15T06:38:29.352Z,30.77
2022-12-15T06:40:41.850Z,28.83
2022-12-15T06:42:54.803Z,30.15
2022-12-15T06:44:58.687Z,32.55
2022-12-15T06:47:07.702Z,31.80
2022-12-15T06:49:16.942Z,30.15
2022-12-15T06:51:28.354Z,34.78
2022-12-15T06:53:52.470Z,33.88
2022-12-15T06:56:28.825Z,32.92
2022-12-15T06:58:58.391Z,40.10
2022-12-15T07:01:15.716Z,38.38
2022-12-15T07:03:26.352Z,34.45
2022-12-15T07:05:29.412Z,39.42
2022-12-15T07:07:41.235Z,34.35
2022-12-15T07:12:26.005Z,31.63
2022-12-15T07:14:28.038Z,35.03
2022-12-15T07:17:11.164Z,39.05
2022-12-15T07:19:23.262Z,33.22
2022-12-15T07:24:48.930Z,35.20
2022-12-15T07:27:35.764Z,36.97
2022-12-15T07:30:19.065Z,38.65
2022-12-15T07:32:38.481Z,37.83
2022-12-15T07:34:40.713Z,38.90
2022-12-15T07:36:54.934Z,34.72
2022-12-15T07:39:01.534Z,34.75
2022-12-15T07:41:09.741Z,35.58
2022-12-15T07:43:13.732Z,37.97
2022-12-15T07:45:19.673Z,35.13
2022-12-15T07:47:26.198Z,42.05
2022-12-15T07:50:03.077Z,37.25
2022-12-15T07:52:05.169Z,40.60
2022-12-15T07:54:17.975Z,40.63
2022-12-15T07:56:20.682Z,39.15
2022-12-15T07:58:34.926Z,36.20
2022-12-15T08:00:48.606Z,36.97
2022-12-15T08:02:56.052Z,39.10
2022-12-15T08:05:19.924Z,36.17
2022-12-15T08:07:33.231Z,37.33
2022-12-15T08:10:13.815Z,36.97
2022-12-15T08:15:59.397Z,36.38
2022-12-15T08:18:12.996Z,41.28
2022-12-15T08:21:11.079Z,41.22
2022-12-15T08:23:22.107Z,42.67
2022-12-15T08:26:07.984Z,40.92
2022-12-15T08:31:34.082Z,42.65
2022-12-15T08:34:01.344Z,40.90
2022-12-15T08:36:20.511Z,42.92
2022-12-15T08:39:06.841Z,39.15
2022-12-15T08:44:42.787Z,38.65
2022-12-15T08:47:33.102Z,43.90
2022-12-15T08:49:46.289Z,45.45
2022-12-15T08:52:07.253Z,40.08
2022-12-15T08:54:53.760Z,42.38
2022-12-15T08:57:14.664Z,42.17
2022-12-15T08:59:25.640Z,42.63
2022-12-15T09:01:32.625Z,43.10
2022-12-15T09:07:15.937Z,40.72
2022-12-15T09:09:19.294Z,41.13
2022-12-15T09:11:23.236Z,44.03
2022-12-15T09:13:36.218Z,40.05
2022-12-15T09:16:08.352Z,36.88
2022-12-15T09:18:13.450Z,35.20
2022-12-15T09:20:17.993Z,34.10
2022-12-15T09:22:25.364Z,33.05
2022-12-15T09:24:35.309Z,29.75
2022-12-15T09:26:45.530Z,31.75
2022-12-15T09:28:55.102Z,28.40
2022-12-15T09:31:07.743Z,27.02
2022-12-15T09:33:17.572Z,30.70
2022-12-15T09:35:20.976Z,32.10
2022-12-15T09:37:34.843Z,29.95
2022-12-15T09:39:38.160Z,29.13
2022-12-15T09:41:41.968Z,31.73
2022-12-15T09:44:22.232Z,30.70
2022-12-15T09:49:57.074Z,27.38
2022-12-15T09:52:13.717Z,32.83
2022-12-15T09:54:15.796Z,27.30
2022-12-15T09:56:27.411Z,29.90
2022-12-15T09:58:47.529Z,29.50
2022-12-15T10:03:54.750Z,28.52
2022-12-15T10:06:24.823Z,32.35
2022-12-15T10:11:04.225Z,35.22
2022-12-15T10:13:26.577Z,33.08
2022-12-15T10:15:41.397Z,34.03
2022-12-15T10:18:11.806Z,32.03
2022-12-15T10:20:26.743Z,34.55
2022-12-15T10:22:38.049Z,31.45
2022-12-15T10:27:49.628Z,31.02
2022-12-15T10:30:15.901Z,35.47
2022-12-15T10:32:44.477Z,32.90
2022-12-15T10:34:53.027Z,35.97
2022-12-15T10:37:03.449Z,34.33
2022-12-15T10:39:05.594Z,36.30
2022-12-15T10:41:19.970Z,32.22
2022-12-15T10:43:40.747Z,35.17
2022-12-15T10:46:04.072Z,40.60
2022-12-15T10:48:18.322Z,35.92
2022-12-15T10:50:28.935Z,36.20
2022-12-15T10:52:52.857Z,36.10
2022-12-15T10:55:39.161Z,37.10
2022-12-15T10:57:59.158Z,36.70
2022-12-15T11:00:23.014Z,35.50
2022-12-15T11:02:34.416Z,35.47
2022-12-15T11:05:16.441Z,38.15
2022-12-15T11:07:48.790Z,37.05
2022-12-15T11:10:09.400Z,38.22
2022-12-15T11:12:42.431Z,37.10
2022-12-15T11:14:56.477Z,36.22
2022-12-15T11:17:07.394Z,35.15
2022-12-15T11:19:20.928Z,36.70
2022-12-15T11:25:18.966Z,39.07
2022-12-15T11:27:49.748Z,38.75
2022-12-15T11:30:03.180Z,36.25
2022-12-15T11:32:07.447Z,38.22
2022-12-15T11:34:42.018Z,37.13
2022-12-15T11:37:29.363Z,39.97
2022-12-15T11:39:45.667Z,42.85
2022-12-15T11:42:04.778Z,40.50
2022-12-15T11:44:30.880Z,40.42
2022-12-15T11:46:55.661Z,39.47
2022-12-15T11:49:41.514Z,39.53
2022-12-15T11:52:27.176Z,41.97
2022-12-15T11:54:50.952Z,43.90
2022-12-15T12:00:23.895Z,45.20
2022-12-15T12:03:04.348Z,45.47
2022-12-15T12:05:25.059Z,43.22
2022-12-15T12:08:15.349Z,46.67
2022-12-15T12:10:51.298Z,43.30
2022-12-15T12:13:22.830Z,46.85
2022-12-15T12:15:47.705Z,44.05
2022-12-15T12:18:06.616Z,46.15
2022-12-15T12:20:15.049Z,45.22
2022-12-15T12:22:39.904Z,45.95
2022-12-15T12:25:09.622Z,41.35
2022-12-15T12:27:28.311Z,40.58
2022-12-15T12:29:36.170Z,41.55
2022-12-15T12:32:00.570Z,38.58
2022-12-15T12:35:30.317Z,35.70
2022-12-15T12:37:43.494Z,37.75
2022-12-15T12:39:45.790Z,35.28
2022-12-15T12:45:41.036Z,38.47
2022-12-15T12:48:02.029Z,36.80
2022-12-15T12:50:33.822Z,35.50
2022-12-15T12:52:38.395Z,37.13
2022-12-15T12:55:01.017Z,34.33
2022-12-15T12:57:10.795Z,32.78
2022-12-15T12:59:31.265Z,32.75
2022-12-15T13:01:35.615Z,33.75
2022-12-15T13:03:42.441Z,31.63
2022-12-15T13:05:50.413Z,31.02
2022-12-15T13:08:29.861Z,30.27
2022-12-15T13:13:56.507Z,31.23
2022-12-15T13:16:40.431Z,30.40
2022-12-15T13:19:11.927Z,29.42
2022-12-15T13:21:44.005Z,27.17
2022-12-15T13:29:37.776Z,33.53
2022-12-15T13:31:54.226Z,31.10
2022-12-15T13:34:01.744Z,30.55
2022-12-15T13:36:38.863Z,28.30
2022-12-15T13:39:23.759Z,28.85
2022-12-15T13:42:31.479Z,29.63
2022-12-15T13:44:52.054Z,29.13
2022-12-15T13:47:30.210Z,31.10
2022-12-15T13:49:42.064Z,29.38
2022-12-15T13:52:44.263Z,30.45
2022-12-15T13:54:56.432Z,31.48
2022-12-15T13:57:20.702Z,33.95
2022-12-15T14:00:19.424Z,31.23
2022-12-15T14:02:32.709Z,31.10
2022-12-15T14:04:35.756Z,30.15
2022-12-15T14:06:47.004Z,33.17
2022-12-15T14:09:17.251Z,33.20
2022-12-15T14:11:51.391Z,32.35
2022-12-15T14:13:52.369Z,34.53
2022-12-15T14:16:24.888Z,35.63
2022-12-15T14:18:37.112Z,37.90
2022-12-15T14:21:40.519Z,38.58
2022-12-15T14:24:37.471Z,39.47
2022-12-15T14:26:32.079Z,39.72
2022-12-15T14:29:15.698Z,40.03
2022-12-15T14:31:30.289Z,42.15
2022-12-15T14:34:12.346Z,41.30
2022-12-15T14:42:23.608Z,38.85
2022-12-15T14:44:37.847Z,42.40
2022-12-15T14:46:49.773Z,42.90
2022-12-15T14:49:29.232Z,47.20
2022-12-15T14:52:07.214Z,42.97
2022-12-15T14:54:49.903Z,46.25
2022-12-15T14:57:09.472Z,46.97
2022-12-15T14:59:34.160Z,44.22
2022-12-15T15:02:16.435Z,45.55
2022-12-15T15:03:16.358Z,27.10
2022-12-15T15:06:40.414Z,44.58
2022-12-15T15:08:49.749Z,45.10
2022-12-15T15:10:57.995Z,44.53
2022-12-15T15:13:00.904Z,41.47
2022-12-15T15:15:06.220Z,41.58
2022-12-15T15:17:17.130Z,36.92
2022-12-15T15:19:22.952Z,38.80
2022-12-15T15:21:28.643Z,38.58
2022-12-15T15:23:39.902Z,35.13
2022-12-15T15:25:56.933Z,38.70
2022-12-15T15:28:27.468Z,36.28
2022-12-15T15:30:30.646Z,36.30
2022-12-15T15:32:32.743Z,36.72
2022-12-15T15:34:39.708Z,35.30
2022-12-15T15:36:41.787Z,35.72
2022-12-15T15:38:54.664Z,38.88
2022-12-15T15:41:01.119Z,40.85
2022-12-15T15:43:14.452Z,41.65
2022-12-15T15:45:16.524Z,41.22
2022-12-15T15:47:47.417Z,39.67
2022-12-15T15:49:56.056Z,41.10
2022-12-15T15:51:59.117Z,34.38
2022-12-15T15:54:25.335Z,32.72
2022-12-15T15:56:37.537Z,35.50
2022-12-15T15:58:50.861Z,35.25
2022-12-15T16:00:58.993Z,31.13
2022-12-15T16:03:03.166Z,31.08
2022-12-15T16:05:21.240Z,34.63
2022-12-15T16:07:29.348Z,37.90
2022-12-15T16:09:37.485Z,37.80
2022-12-15T16:11:41.548Z,37.53
2022-12-15T16:13:51.533Z,37.35
2022-12-15T16:15:55.616Z,36.30
2022-12-15T16:17:58.229Z,36.50
2022-12-15T16:20:22.324Z,34.97
2022-12-15T16:22:24.947Z,35.05
2022-12-15T16:24:28.028Z,34.30
2022-12-15T16:26:33.564Z,34.63
2022-12-15T16:28:36.915Z,35.05
2022-12-15T16:30:43.768Z,37.85
2022-12-15T16:32:47.882Z,35.65
2022-12-15T16:34:51.765Z,36.53
2022-12-15T16:36:58.172Z,39.25
2022-12-15T16:39:10.862Z,37.25
2022-12-15T16:41:23.740Z,36.67
2022-12-15T16:43:47.762Z,39.53
2022-12-15T16:46:00.460Z,36.45
2022-12-15T16:48:03.817Z,33.83
2022-12-15T16:50:20.770Z,37.92
2022-12-15T16:52:34.795Z,32.40
2022-12-15T16:54:51.374Z,34.58
2022-12-15T16:57:01.478Z,32.63
2022-12-15T16:59:31.555Z,32.55
2022-12-15T17:03:33.622Z,37.72
2022-12-15T17:05:40.872Z,34.45
2022-12-15T17:07:56.345Z,37.40
2022-12-15T17:10:07.362Z,36.95
2022-12-15T17:12:19.170Z,36.60
2022-12-15T17:16:27.365Z,37.63
2022-12-15T17:18:30.757Z,36.55
2022-12-15T17:20:33.561Z,34.67
2022-12-15T17:22:35.727Z,35.53
2022-12-15T17:24:53.106Z,38.05
2022-12-15T17:27:01.399Z,38.95
2022-12-15T17:29:13.572Z,36.47
2022-12-15T17:31:21.801Z,37.90
2022-12-15T17:33:34.230Z,35.97
2022-12-15T17:35:49.758Z,40.65
2022-12-15T17:37:58.302Z,38.50
2022-12-15T17:40:00.846Z,38.55
2022-12-15T17:42:21.677Z,39.20
2022-12-15T17:44:40.140Z,42.83
2022-12-15T17:46:45.876Z,54.70
2022-12-15T17:48:49.407Z,44.55
2022-12-15T17:51:14.579Z,48.88
2022-12-15T17:53:31.196Z,47.60
2022-12-15T17:55:37.219Z,47.60
2022-12-15T17:57:40.269Z,50.28
2022-12-15T17:59:50.584Z,49.63
2022-12-15T18:01:57.906Z,48.25
2022-12-15T18:04:05.557Z,51.10
2022-12-15T18:06:15.859Z,56.03
2022-12-15T18:08:28.462Z,46.85
2022-12-15T18:10:41.408Z,48.42
2022-12-15T18:12:44.402Z,50.25
2022-12-15T18:14:48.045Z,45.00
2022-12-15T18:16:56.936Z,49.15
2022-12-15T18:19:02.461Z,49.28
2022-12-15T18:21:14.648Z,47.97
2022-12-15T18:23:27.152Z,44.05
2022-12-15T18:25:32.615Z,45.55
2022-12-15T18:27:51.124Z,48.60
2022-12-15T18:29:57.219Z,46.75
2022-12-15T18:32:00.008Z,47.33
2022-12-15T18:34:22.248Z,48.80
2022-12-15T18:36:25.003Z,47.22
2022-12-15T18:38:31.330Z,50.60
2022-12-15T18:40:40.842Z,48.83
2022-12-15T18:42:45.480Z,51.90
2022-12-15T18:44:53.684Z,50.92
2022-12-15T18:47:11.608Z,47.47
2022-12-15T18:49:39.747Z,46.13
2022-12-15T18:51:42.877Z,46.33
2022-12-15T18:53:54.673Z,49.13
2022-12-15T18:58:23.070Z,61.55
2022-12-15T19:00:30.695Z,54.13
2022-12-15T19:02:36.742Z,53.85
2022-12-15T19:04:39.291Z,58.35
2022-12-15T19:06:43.661Z,62.53
2022-12-15T19:08:47.044Z,60.72
2022-12-15T19:10:58.821Z,63.25
2022-12-15T19:15:20.539Z,61.88
2022-12-15T19:17:43.267Z,60.22
2022-12-15T19:20:06.772Z,57.33
2022-12-15T19:22:32.360Z,56.47
2022-12-15T19:24:56.570Z,56.78
2022-12-15T19:27:12.921Z,57.67
2022-12-15T19:29:21.618Z,58.15
2022-12-15T19:31:30.366Z,51.20
2022-12-15T19:33:33.823Z,48.25
2022-12-15T19:35:47.090Z,47.20
2022-12-15T19:37:51.305Z,49.08
2022-12-15T19:39:55.790Z,47.83
2022-12-15T19:42:17.635Z,47.25
2022-12-15T19:44:26.620Z,48.83
2022-12-15T19:46:35.584Z,51.25
2022-12-15T19:48:39.363Z,53.15
2022-12-15T19:50:44.910Z,48.92
2022-12-15T19:53:02.770Z,50.00
2022-12-15T19:55:26.327Z,49.33
2022-12-15T19:57:28.952Z,48.28
2022-12-15T19:59:46.032Z,48.85
2022-12-15T20:01:52.361Z,50.75
2022-12-15T20:04:13.307Z,49.13
2022-12-15T20:06:26.888Z,48.50
2022-12-15T20:08:37.546Z,50.28
2022-12-15T20:10:54.201Z,44.63
2022-12-15T20:13:06.211Z,47.70
2022-12-15T20:15:28.469Z,48.97
2022-12-15T20:17:32.618Z,55.80
2022-12-15T20:19:35.745Z,59.30
2022-12-15T20:21:43.522Z,78.32
2022-12-15T20:23:56.668Z,60.60
2022-12-15T20:26:01.968Z,55.22
2022-12-15T20:28:25.160Z,52.72
2022-12-15T20:30:43.230Z,55.58
2022-12-15T20:32:47.921Z,52.72
2022-12-15T20:34:57.196Z,50.10
2022-12-15T20:37:05.564Z,50.80
2022-12-15T20:39:26.137Z,48.17
2022-12-15T20:41:33.518Z,54.22
2022-12-15T20:43:37.058Z,50.30
2022-12-15T20:45:46.979Z,53.30
2022-12-15T20:47:58.534Z,49.15
2022-12-15T20:50:07.822Z,55.10
2022-12-15T20:52:20.106Z,53.58
2022-12-15T20:54:25.896Z,54.20
2022-12-15T20:56:42.812Z,51.28
2022-12-15T20:58:46.568Z,52.20
2022-12-15T21:00:51.855Z,52.03
2022-12-15T21:02:55.290Z,53.00
2022-12-15T21:05:00.664Z,49.10
2022-12-15T21:07:11.460Z,48.13
2022-12-15T21:09:16.590Z,52.75
2022-12-15T21:11:33.412Z,48.95
2022-12-15T21:13:51.223Z,55.00
2022-12-15T21:15:57.185Z,54.17
2022-12-15T21:18:40.602Z,57.22
2022-12-15T21:20:29.178Z,52.22
2022-12-15T21:22:34.224Z,54.33
2022-12-15T21:24:37.410Z,59.53
2022-12-15T21:26:47.247Z,52.10
2022-12-15T21:29:02.812Z,64.40
2022-12-15T21:31:13.063Z,50.30
2022-12-15T21:33:18.015Z,63.28
2022-12-15T21:35:22.366Z,66.13
2022-12-15T21:37:31.037Z,66.25
2022-12-15T21:39:37.435Z,68.82
2022-12-15T21:42:08.340Z,72.22
2022-12-15T21:44:14.253Z,65.32
2022-12-15T21:46:29.016Z,58.33
2022-12-15T21:48:55.506Z,57.60
2022-12-15T21:51:14.779Z,55.53
2022-12-15T21:53:17.837Z,59.78
2022-12-15T21:55:29.400Z,62.22
2022-12-15T21:57:32.259Z,64.78
2022-12-15T21:59:35.263Z,73.35
2022-12-15T22:01:38.427Z,70.38
2022-12-15T22:03:45.175Z,69.95
2022-12-15T22:05:48.067Z,57.60
2022-12-15T22:07:52.497Z,62.00
2022-12-15T22:09:56.404Z,65.22
2022-12-15T22:11:58.473Z,68.38
2022-12-15T22:14:15.317Z,69.13
2022-12-15T22:16:25.078Z,69.30
2022-12-15T22:18:27.123Z,73.15
2022-12-15T22:20:33.013Z,66.10
2022-12-15T22:22:51.789Z,70.10
2022-12-15T22:24:54.791Z,74.78
2022-12-15T22:26:57.746Z,78.45
2022-12-15T22:29:03.269Z,72.80
2022-12-15T22:31:05.343Z,69.13
2022-12-15T22:33:22.122Z,94.95
2022-12-15T22:35:26.836Z,94.78
2022-12-15T22:37:29.793Z,83.63
2022-12-15T22:39:32.124Z,85.43
2022-12-15T22:41:36.055Z,83.03
2022-12-15T22:43:41.814Z,80.78
2022-12-15T22:45:43.704Z,72.97
2022-12-15T22:47:47.499Z,68.32
2022-12-15T22:49:49.448Z,65.90
2022-12-15T22:51:51.448Z,65.90
2022-12-15T22:53:53.359Z,66.07
2022-12-15T22:55:57.051Z,69.53
2022-12-15T22:58:03.273Z,65.72
2022-12-15T23:00:09.807Z,64.93
2022-12-15T23:02:12.284Z,61.55
2022-12-15T23:04:14.619Z,58.35
2022-12-15T23:06:16.476Z,57.85
2022-12-15T23:08:18.411Z,62.67
2022-12-15T23:10:39.572Z,65.28
2022-12-15T23:12:41.746Z,68.10
2022-12-15T23:15:04.842Z,60.63
2022-12-15T23:17:07.295Z,65.03
2022-12-15T23:19:24.020Z,64.45
2022-12-15T23:21:26.800Z,64.85
2022-12-15T23:23:32.423Z,56.42
2022-12-15T23:25:34.860Z,53.95
2022-12-15T23:27:36.868Z,57.30
2022-12-15T23:29:38.759Z,54.60
2022-12-15T23:31:41.631Z,53.83
2022-12-15T23:33:43.797Z,51.90
2022-12-15T23:35:46.672Z,53.10
2022-12-15T23:37:48.546Z,49.67
2022-12-15T23:39:50.418Z,49.85
2022-12-15T23:41:53.674Z,51.78
2022-12-15T23:43:55.803Z,52.38
2022-12-15T23:46:06.299Z,49.03
2022-12-15T23:48:09.886Z,50.90
2022-12-15T23:50:12.039Z,52.83
2022-12-15T23:52:15.083Z,46.47
2022-12-15T23:54:17.014Z,48.40
2022-12-15T23:56:24.402Z,50.03
2022-12-15T23:58:26.228Z,48.90
